sensor_id;sensor_type;location;lat;lon;timestamp;temperature;humidity
54832;DHT22;40730;53.068;6.572;2022-12-18T00:00:53;-3.30;99.90
54832;DHT22;40730;53.068;6.572;2022-12-18T00:03:37;-2.90;99.90
54832;DHT22;40730;53.068;6.572;2022-12-18T00:06:15;-3.40;99.90
54832;DHT22;40730;53.068;6.572;2022-12-18T00:09:26;-4.00;99.90
54832;DHT22;40730;53.068;6.572;2022-12-18T00:12:04;-3.10;99.90
54832;DHT22;40730;53.068;6.572;2022-12-18T00:18:05;-3.30;99.90
54832;DHT22;40730;53.068;6.572;2022-12-18T00:21:17;-3.30;99.90
54832;DHT22;40730;53.068;6.572;2022-12-18T00:24:18;-3.20;99.90
54832;DHT22;40730;53.068;6.572;2022-12-18T00:27:04;-3.30;99.90
54832;DHT22;40730;53.068;6.572;2022-12-18T00:30:12;-3.30;99.90
54832;DHT22;40730;53.068;6.572;2022-12-18T00:32:50;-3.40;99.90
54832;DHT22;40730;53.068;6.572;2022-12-18T00:35:50;-3.40;99.90
54832;DHT22;40730;53.068;6.572;2022-12-18T00:38:28;-3.40;99.90
54832;DHT22;40730;53.068;6.572;2022-12-18T00:41:17;-3.50;99.90
54832;DHT22;40730;53.068;6.572;2022-12-18T00:44:14;-3.50;99.90
54832;DHT22;40730;53.068;6.572;2022-12-18T00:47:03;-3.30;99.90
54832;DHT22;40730;53.068;6.572;2022-12-18T00:49:56;-3.00;99.90
54832;DHT22;40730;53.068;6.572;2022-12-18T00:52:52;-4.30;99.90
54832;DHT22;40730;53.068;6.572;2022-12-18T00:55:24;-2.90;99.90
54832;DHT22;40730;53.068;6.572;2022-12-18T00:58:11;-3.00;99.90
54832;DHT22;40730;53.068;6.572;2022-12-18T01:00:58;-4.00;99.90
54832;DHT22;40730;53.068;6.572;2022-12-18T01:03:28;-2.80;99.90
54832;DHT22;40730;53.068;6.572;2022-12-18T01:06:35;-3.00;99.90
54832;DHT22;40730;53.068;6.572;2022-12-18T01:09:23;-4.40;99.90
54832;DHT22;40730;53.068;6.572;2022-12-18T01:12:48;-3.20;99.90
54832;DHT22;40730;53.068;6.572;2022-12-18T01:15:33;-3.70;99.90
54832;DHT22;40730;53.068;6.572;2022-12-18T01:18:45;-3.20;99.90
54832;DHT22;40730;53.068;6.572;2022-12-18T01:22:40;-3.80;99.90
54832;DHT22;40730;53.068;6.572;2022-12-18T01:25:24;-4.30;99.90
54832;DHT22;40730;53.068;6.572;2022-12-18T01:28:38;-3.30;99.90
54832;DHT22;40730;53.068;6.572;2022-12-18T01:31:31;-3.20;99.90
54832;DHT22;40730;53.068;6.572;2022-12-18T01:34:38;-4.00;99.90
54832;DHT22;40730;53.068;6.572;2022-12-18T01:37:05;-3.70;99.90
54832;DHT22;40730;53.068;6.572;2022-12-18T01:39:54;-4.20;99.90
54832;DHT22;40730;53.068;6.572;2022-12-18T01:42:25;-4.10;99.90
54832;DHT22;40730;53.068;6.572;2022-12-18T01:45:38;-4.30;99.90
54832;DHT22;40730;53.068;6.572;2022-12-18T01:48:43;-3.70;99.90
54832;DHT22;40730;53.068;6.572;2022-12-18T01:51:45;-4.30;99.90
54832;DHT22;40730;53.068;6.572;2022-12-18T01:54:19;-3.90;99.90
54832;DHT22;40730;53.068;6.572;2022-12-18T01:56:52;-4.00;99.90
54832;DHT22;40730;53.068;6.572;2022-12-18T01:59:52;-4.50;99.90
54832;DHT22;40730;53.068;6.572;2022-12-18T02:02:36;-4.50;99.90
54832;DHT22;40730;53.068;6.572;2022-12-18T02:12:13;-4.50;99.90
54832;DHT22;40730;53.068;6.572;2022-12-18T02:15:22;-4.30;99.90
54832;DHT22;40730;53.068;6.572;2022-12-18T02:18:08;-4.60;99.90
54832;DHT22;40730;53.068;6.572;2022-12-18T02:21:40;-4.70;99.90
54832;DHT22;40730;53.068;6.572;2022-12-18T02:24:51;-4.30;99.90
54832;DHT22;40730;53.068;6.572;2022-12-18T02:27:27;-4.30;99.90
54832;DHT22;40730;53.068;6.572;2022-12-18T02:30:16;-3.90;99.90
54832;DHT22;40730;53.068;6.572;2022-12-18T02:33:08;-3.90;99.90
54832;DHT22;40730;53.068;6.572;2022-12-18T02:35:57;-4.70;99.90
54832;DHT22;40730;53.068;6.572;2022-12-18T02:38:50;-3.90;99.90
54832;DHT22;40730;53.068;6.572;2022-12-18T02:41:30;-4.40;99.90
54832;DHT22;40730;53.068;6.572;2022-12-18T02:44:41;-4.20;99.90
54832;DHT22;40730;53.068;6.572;2022-12-18T02:47:50;-4.50;99.90
54832;DHT22;40730;53.068;6.572;2022-12-18T02:51:32;-5.00;99.90
54832;DHT22;40730;53.068;6.572;2022-12-18T02:54:21;-4.70;99.90
54832;DHT22;40730;53.068;6.572;2022-12-18T03:00:36;-4.80;99.90
54832;DHT22;40730;53.068;6.572;2022-12-18T03:03:47;-4.30;99.90
54832;DHT22;40730;53.068;6.572;2022-12-18T03:06:49;-4.50;99.90
54832;DHT22;40730;53.068;6.572;2022-12-18T03:09:41;-5.30;99.90
54832;DHT22;40730;53.068;6.572;2022-12-18T03:12:35;-4.90;99.90
54832;DHT22;40730;53.068;6.572;2022-12-18T03:15:50;-4.50;99.90
54832;DHT22;40730;53.068;6.572;2022-12-18T03:19:11;-5.70;99.90
54832;DHT22;40730;53.068;6.572;2022-12-18T03:22:38;-5.30;99.90
54832;DHT22;40730;53.068;6.572;2022-12-18T03:26:19;-5.00;99.90
54832;DHT22;40730;53.068;6.572;2022-12-18T03:29:40;-5.00;99.90
54832;DHT22;40730;53.068;6.572;2022-12-18T03:32:51;-5.10;99.90
54832;DHT22;40730;53.068;6.572;2022-12-18T03:36:00;-4.70;99.90
54832;DHT22;40730;53.068;6.572;2022-12-18T03:38:39;-4.60;99.90
54832;DHT22;40730;53.068;6.572;2022-12-18T03:41:45;-4.20;99.90
54832;DHT22;40730;53.068;6.572;2022-12-18T03:48:13;-4.60;99.90
54832;DHT22;40730;53.068;6.572;2022-12-18T03:51:15;-5.00;99.90
54832;DHT22;40730;53.068;6.572;2022-12-18T03:54:38;-4.80;99.90
54832;DHT22;40730;53.068;6.572;2022-12-18T03:57:40;-5.20;99.90
54832;DHT22;40730;53.068;6.572;2022-12-18T04:00:30;-5.00;99.90
54832;DHT22;40730;53.068;6.572;2022-12-18T04:06:18;-4.60;99.90
54832;DHT22;40730;53.068;6.572;2022-12-18T04:09:21;-4.90;99.90
54832;DHT22;40730;53.068;6.572;2022-12-18T04:12:21;-4.80;99.90
54832;DHT22;40730;53.068;6.572;2022-12-18T04:15:37;-4.60;99.90
54832;DHT22;40730;53.068;6.572;2022-12-18T04:18:46;-4.80;99.90
54832;DHT22;40730;53.068;6.572;2022-12-18T04:21:51;-5.30;99.90
54832;DHT22;40730;53.068;6.572;2022-12-18T04:24:41;-4.70;99.90
54832;DHT22;40730;53.068;6.572;2022-12-18T04:27:44;-5.40;99.90
54832;DHT22;40730;53.068;6.572;2022-12-18T04:30:36;-5.50;99.90
54832;DHT22;40730;53.068;6.572;2022-12-18T04:33:27;-5.10;99.90
54832;DHT22;40730;53.068;6.572;2022-12-18T04:36:34;-5.50;99.90
54832;DHT22;40730;53.068;6.572;2022-12-18T04:39:50;-5.30;99.90
54832;DHT22;40730;53.068;6.572;2022-12-18T04:42:38;-5.00;99.90
54832;DHT22;40730;53.068;6.572;2022-12-18T04:45:45;-5.60;99.90
54832;DHT22;40730;53.068;6.572;2022-12-18T04:48:40;-6.20;99.90
54832;DHT22;40730;53.068;6.572;2022-12-18T04:51:36;-5.40;99.90
54832;DHT22;40730;53.068;6.572;2022-12-18T04:54:33;-5.40;99.90
54832;DHT22;40730;53.068;6.572;2022-12-18T04:57:13;-5.10;99.90
54832;DHT22;40730;53.068;6.572;2022-12-18T05:00:34;-5.70;99.90
54832;DHT22;40730;53.068;6.572;2022-12-18T05:03:42;-5.50;99.90
54832;DHT22;40730;53.068;6.572;2022-12-18T05:06:32;-4.80;99.90
54832;DHT22;40730;53.068;6.572;2022-12-18T05:09:13;-5.10;99.90
54832;DHT22;40730;53.068;6.572;2022-12-18T05:11:56;-5.80;99.90
54832;DHT22;40730;53.068;6.572;2022-12-18T05:15:07;-5.20;99.90
54832;DHT22;40730;53.068;6.572;2022-12-18T05:17:57;-5.70;99.90
54832;DHT22;40730;53.068;6.572;2022-12-18T05:20:36;-6.20;99.90
54832;DHT22;40730;53.068;6.572;2022-12-18T05:23:33;-5.20;99.90
54832;DHT22;40730;53.068;6.572;2022-12-18T05:26:32;-4.90;99.90
54832;DHT22;40730;53.068;6.572;2022-12-18T05:29:34;-5.20;99.90
54832;DHT22;40730;53.068;6.572;2022-12-18T05:32:18;-5.60;99.90
54832;DHT22;40730;53.068;6.572;2022-12-18T05:35:25;-5.50;99.90
54832;DHT22;40730;53.068;6.572;2022-12-18T05:38:14;-5.80;99.90
54832;DHT22;40730;53.068;6.572;2022-12-18T05:40:49;-6.00;99.90
54832;DHT22;40730;53.068;6.572;2022-12-18T05:44:19;-5.70;99.90
54832;DHT22;40730;53.068;6.572;2022-12-18T05:47:35;-5.50;99.90
54832;DHT22;40730;53.068;6.572;2022-12-18T05:53:23;-5.60;99.90
54832;DHT22;40730;53.068;6.572;2022-12-18T05:56:22;-5.00;99.90
54832;DHT22;40730;53.068;6.572;2022-12-18T05:59:29;-5.50;99.90
54832;DHT22;40730;53.068;6.572;2022-12-18T06:02:16;-5.80;99.90
54832;DHT22;40730;53.068;6.572;2022-12-18T06:04:53;-5.80;99.90
54832;DHT22;40730;53.068;6.572;2022-12-18T06:07:47;-5.30;99.90
54832;DHT22;40730;53.068;6.572;2022-12-18T06:10:29;-5.10;99.90
54832;DHT22;40730;53.068;6.572;2022-12-18T06:13:03;-5.80;99.90
54832;DHT22;40730;53.068;6.572;2022-12-18T06:15:40;-5.20;99.90
54832;DHT22;40730;53.068;6.572;2022-12-18T06:18:31;-5.80;99.90
54832;DHT22;40730;53.068;6.572;2022-12-18T06:21:07;-6.50;99.90
54832;DHT22;40730;53.068;6.572;2022-12-18T06:24:13;-6.00;99.90
54832;DHT22;40730;53.068;6.572;2022-12-18T06:27:01;-5.90;99.90
54832;DHT22;40730;53.068;6.572;2022-12-18T06:30:10;-6.40;99.90
54832;DHT22;40730;53.068;6.572;2022-12-18T06:32:53;-6.90;99.90
54832;DHT22;40730;53.068;6.572;2022-12-18T06:36:02;-5.40;99.90
54832;DHT22;40730;53.068;6.572;2022-12-18T06:39:48;-6.10;99.90
54832;DHT22;40730;53.068;6.572;2022-12-18T06:43:13;-7.10;99.90
54832;DHT22;40730;53.068;6.572;2022-12-18T06:46:02;-6.20;99.90
54832;DHT22;40730;53.068;6.572;2022-12-18T06:48:48;-6.40;99.90
54832;DHT22;40730;53.068;6.572;2022-12-18T06:51:31;-5.70;99.90
54832;DHT22;40730;53.068;6.572;2022-12-18T06:54:07;-5.70;99.90
54832;DHT22;40730;53.068;6.572;2022-12-18T06:56:37;-6.70;99.90
54832;DHT22;40730;53.068;6.572;2022-12-18T06:59:45;-5.70;99.90
54832;DHT22;40730;53.068;6.572;2022-12-18T07:02:51;-6.40;99.90
54832;DHT22;40730;53.068;6.572;2022-12-18T07:05:40;-6.30;99.90
54832;DHT22;40730;53.068;6.572;2022-12-18T07:08:40;-6.00;99.90
54832;DHT22;40730;53.068;6.572;2022-12-18T07:11:32;-6.10;99.90
54832;DHT22;40730;53.068;6.572;2022-12-18T07:14:58;-5.60;99.90
54832;DHT22;40730;53.068;6.572;2022-12-18T07:17:51;-5.80;99.90
54832;DHT22;40730;53.068;6.572;2022-12-18T07:21:03;-6.40;99.90
54832;DHT22;40730;53.068;6.572;2022-12-18T07:23:53;-5.80;99.90
54832;DHT22;40730;53.068;6.572;2022-12-18T07:26:45;-6.20;99.90
54832;DHT22;40730;53.068;6.572;2022-12-18T07:29:37;-5.50;99.90
54832;DHT22;40730;53.068;6.572;2022-12-18T07:32:03;-5.70;99.90
54832;DHT22;40730;53.068;6.572;2022-12-18T07:34:36;-7.10;99.90
54832;DHT22;40730;53.068;6.572;2022-12-18T07:37:19;-6.30;99.90
54832;DHT22;40730;53.068;6.572;2022-12-18T07:40:07;-5.80;99.90
54832;DHT22;40730;53.068;6.572;2022-12-18T07:42:55;-5.60;99.90
54832;DHT22;40730;53.068;6.572;2022-12-18T07:45:26;-6.30;99.90
54832;DHT22;40730;53.068;6.572;2022-12-18T07:48:39;-6.30;99.90
54832;DHT22;40730;53.068;6.572;2022-12-18T07:51:38;-6.20;99.90
54832;DHT22;40730;53.068;6.572;2022-12-18T07:55:08;-5.50;99.90
54832;DHT22;40730;53.068;6.572;2022-12-18T07:58:05;-5.60;99.90
54832;DHT22;40730;53.068;6.572;2022-12-18T08:01:01;-6.50;99.90
54832;DHT22;40730;53.068;6.572;2022-12-18T08:04:11;-6.00;99.90
54832;DHT22;40730;53.068;6.572;2022-12-18T08:07:27;-6.00;99.90
54832;DHT22;40730;53.068;6.572;2022-12-18T08:10:20;-6.10;99.90
54832;DHT22;40730;53.068;6.572;2022-12-18T08:13:06;-6.00;99.90
54832;DHT22;40730;53.068;6.572;2022-12-18T08:16:03;-7.00;99.90
54832;DHT22;40730;53.068;6.572;2022-12-18T08:22:19;-5.60;99.90
54832;DHT22;40730;53.068;6.572;2022-12-18T08:25:23;-6.30;99.90
54832;DHT22;40730;53.068;6.572;2022-12-18T08:28:30;-5.60;99.90
54832;DHT22;40730;53.068;6.572;2022-12-18T08:31:17;-5.50;99.90
54832;DHT22;40730;53.068;6.572;2022-12-18T08:34:08;-5.60;99.90
54832;DHT22;40730;53.068;6.572;2022-12-18T08:37:07;-5.80;99.90
54832;DHT22;40730;53.068;6.572;2022-12-18T08:40:24;-5.60;99.90
54832;DHT22;40730;53.068;6.572;2022-12-18T08:43:35;-5.90;99.90
54832;DHT22;40730;53.068;6.572;2022-12-18T08:46:53;-5.40;99.90
54832;DHT22;40730;53.068;6.572;2022-12-18T08:49:55;-5.70;99.90
54832;DHT22;40730;53.068;6.572;2022-12-18T08:52:44;-6.20;99.90
54832;DHT22;40730;53.068;6.572;2022-12-18T08:55:54;-5.00;99.90
54832;DHT22;40730;53.068;6.572;2022-12-18T08:59:11;-5.60;99.90
54832;DHT22;40730;53.068;6.572;2022-12-18T09:01:53;-5.30;99.90
54832;DHT22;40730;53.068;6.572;2022-12-18T09:05:04;-5.50;99.90
54832;DHT22;40730;53.068;6.572;2022-12-18T09:11:24;-5.30;99.90
54832;DHT22;40730;53.068;6.572;2022-12-18T09:14:19;-5.30;99.90
54832;DHT22;40730;53.068;6.572;2022-12-18T09:17:32;-5.10;99.90
54832;DHT22;40730;53.068;6.572;2022-12-18T09:20:18;-4.20;99.90
54832;DHT22;40730;53.068;6.572;2022-12-18T09:23:11;-4.90;99.90
54832;DHT22;40730;53.068;6.572;2022-12-18T09:25:42;-4.80;99.90
54832;DHT22;40730;53.068;6.572;2022-12-18T09:28:25;-4.50;99.90
54832;DHT22;40730;53.068;6.572;2022-12-18T09:30:57;-4.50;99.90
54832;DHT22;40730;53.068;6.572;2022-12-18T09:33:50;-4.10;99.90
54832;DHT22;40730;53.068;6.572;2022-12-18T09:36:27;-3.80;99.90
54832;DHT22;40730;53.068;6.572;2022-12-18T09:40:00;-3.40;99.90
54832;DHT22;40730;53.068;6.572;2022-12-18T09:42:48;-3.30;99.90
54832;DHT22;40730;53.068;6.572;2022-12-18T09:46:08;-4.00;99.90
54832;DHT22;40730;53.068;6.572;2022-12-18T09:49:29;-3.40;99.90
54832;DHT22;40730;53.068;6.572;2022-12-18T09:52:32;-2.90;99.90
54832;DHT22;40730;53.068;6.572;2022-12-18T09:55:34;-3.50;99.90
54832;DHT22;40730;53.068;6.572;2022-12-18T09:58:55;-2.90;99.90
54832;DHT22;40730;53.068;6.572;2022-12-18T10:02:19;-2.70;99.90
54832;DHT22;40730;53.068;6.572;2022-12-18T10:06:16;-2.70;99.90
54832;DHT22;40730;53.068;6.572;2022-12-18T10:10:32;-3.00;99.90
54832;DHT22;40730;53.068;6.572;2022-12-18T10:16:08;-3.00;99.90
54832;DHT22;40730;53.068;6.572;2022-12-18T10:19:33;-3.20;99.90
54832;DHT22;40730;53.068;6.572;2022-12-18T10:26:11;-2.70;99.90
54832;DHT22;40730;53.068;6.572;2022-12-18T10:29:26;-3.20;99.90
54832;DHT22;40730;53.068;6.572;2022-12-18T10:32:07;-3.00;99.90
54832;DHT22;40730;53.068;6.572;2022-12-18T10:34:51;-2.90;99.90
54832;DHT22;40730;53.068;6.572;2022-12-18T10:41:32;-2.70;99.90
54832;DHT22;40730;53.068;6.572;2022-12-18T10:47:10;-2.70;99.90
54832;DHT22;40730;53.068;6.572;2022-12-18T10:49:37;-2.10;99.90
54832;DHT22;40730;53.068;6.572;2022-12-18T10:52:22;-2.20;99.90
54832;DHT22;40730;53.068;6.572;2022-12-18T10:55:16;-2.50;99.90
54832;DHT22;40730;53.068;6.572;2022-12-18T10:58:55;-1.80;99.90
54832;DHT22;40730;53.068;6.572;2022-12-18T11:01:25;-2.50;99.90
54832;DHT22;40730;53.068;6.572;2022-12-18T11:04:07;-1.70;99.90
54832;DHT22;40730;53.068;6.572;2022-12-18T11:07:21;-2.80;99.90
54832;DHT22;40730;53.068;6.572;2022-12-18T11:13:23;-3.10;99.90
54832;DHT22;40730;53.068;6.572;2022-12-18T11:16:29;-2.00;99.90
54832;DHT22;40730;53.068;6.572;2022-12-18T11:20:33;-3.20;99.90
54832;DHT22;40730;53.068;6.572;2022-12-18T11:23:54;-1.80;99.90
54832;DHT22;40730;53.068;6.572;2022-12-18T11:27:18;-2.40;99.90
54832;DHT22;40730;53.068;6.572;2022-12-18T11:30:44;-2.80;99.90
54832;DHT22;40730;53.068;6.572;2022-12-18T11:34:33;-2.60;99.90
54832;DHT22;40730;53.068;6.572;2022-12-18T11:37:10;-1.90;99.90
54832;DHT22;40730;53.068;6.572;2022-12-18T11:40:48;-2.30;99.90
54832;DHT22;40730;53.068;6.572;2022-12-18T11:43:37;-2.10;99.90
54832;DHT22;40730;53.068;6.572;2022-12-18T11:46:30;-2.10;99.90
54832;DHT22;40730;53.068;6.572;2022-12-18T11:49:12;-2.00;99.90
54832;DHT22;40730;53.068;6.572;2022-12-18T11:52:22;-1.90;99.90
54832;DHT22;40730;53.068;6.572;2022-12-18T11:55:00;-2.70;99.90
54832;DHT22;40730;53.068;6.572;2022-12-18T12:09:11;-1.90;99.90
54832;DHT22;40730;53.068;6.572;2022-12-18T12:12:16;-2.20;99.90
54832;DHT22;40730;53.068;6.572;2022-12-18T12:16:10;-1.80;99.90
54832;DHT22;40730;53.068;6.572;2022-12-18T12:22:31;-1.40;99.90
54832;DHT22;40730;53.068;6.572;2022-12-18T12:38:56;-1.60;99.90
54832;DHT22;40730;53.068;6.572;2022-12-18T12:41:45;-1.40;99.90
54832;DHT22;40730;53.068;6.572;2022-12-18T12:44:54;-1.40;99.90
54832;DHT22;40730;53.068;6.572;2022-12-18T12:47:58;-1.00;99.90
54832;DHT22;40730;53.068;6.572;2022-12-18T12:50:35;-0.80;99.90
54832;DHT22;40730;53.068;6.572;2022-12-18T12:53:52;-1.30;99.90
54832;DHT22;40730;53.068;6.572;2022-12-18T12:57:08;-1.20;99.90
54832;DHT22;40730;53.068;6.572;2022-12-18T13:00:29;-1.20;99.90
54832;DHT22;40730;53.068;6.572;2022-12-18T13:04:02;-0.90;99.90
54832;DHT22;40730;53.068;6.572;2022-12-18T13:10:14;-0.80;99.90
54832;DHT22;40730;53.068;6.572;2022-12-18T13:13:19;-0.40;99.90
54832;DHT22;40730;53.068;6.572;2022-12-18T13:16:13;-1.00;99.90
54832;DHT22;40730;53.068;6.572;2022-12-18T13:19:23;-0.90;99.90
54832;DHT22;40730;53.068;6.572;2022-12-18T13:23:01;-0.90;99.90
54832;DHT22;40730;53.068;6.572;2022-12-18T13:28:57;-0.50;99.90
54832;DHT22;40730;53.068;6.572;2022-12-18T13:31:59;-0.60;99.90
54832;DHT22;40730;53.068;6.572;2022-12-18T13:35:50;-0.90;99.90
54832;DHT22;40730;53.068;6.572;2022-12-18T13:38:00;-0.70;99.90
54832;DHT22;40730;53.068;6.572;2022-12-18T13:40:54;-0.90;99.90
54832;DHT22;40730;53.068;6.572;2022-12-18T13:44:07;-0.30;99.90
54832;DHT22;40730;53.068;6.572;2022-12-18T13:46:44;-0.50;99.90
54832;DHT22;40730;53.068;6.572;2022-12-18T13:50:26;-0.40;99.90
54832;DHT22;40730;53.068;6.572;2022-12-18T13:53:47;-0.80;99.90
54832;DHT22;40730;53.068;6.572;2022-12-18T13:56:45;-0.30;99.90
54832;DHT22;40730;53.068;6.572;2022-12-18T13:59:36;-0.80;99.90
54832;DHT22;40730;53.068;6.572;2022-12-18T14:03:20;-0.60;99.90
54832;DHT22;40730;53.068;6.572;2022-12-18T14:06:20;-0.60;99.90
54832;DHT22;40730;53.068;6.572;2022-12-18T14:09:30;-0.90;99.90
54832;DHT22;40730;53.068;6.572;2022-12-18T14:12:39;-1.40;99.90
54832;DHT22;40730;53.068;6.572;2022-12-18T14:15:33;-0.90;99.90
54832;DHT22;40730;53.068;6.572;2022-12-18T14:18:57;-0.40;99.90
54832;DHT22;40730;53.068;6.572;2022-12-18T14:21:59;-1.00;99.90
54832;DHT22;40730;53.068;6.572;2022-12-18T14:28:15;-0.50;99.90
54832;DHT22;40730;53.068;6.572;2022-12-18T14:30:56;-0.70;99.90
54832;DHT22;40730;53.068;6.572;2022-12-18T14:34:05;-1.00;99.90
54832;DHT22;40730;53.068;6.572;2022-12-18T14:36:58;-1.10;99.90
54832;DHT22;40730;53.068;6.572;2022-12-18T14:39:56;-1.10;99.90
54832;DHT22;40730;53.068;6.572;2022-12-18T14:42:34;-1.10;99.90
54832;DHT22;40730;53.068;6.572;2022-12-18T14:45:38;-0.70;99.90
54832;DHT22;40730;53.068;6.572;2022-12-18T14:48:25;-1.10;99.90
54832;DHT22;40730;53.068;6.572;2022-12-18T14:54:14;-1.20;99.90
54832;DHT22;40730;53.068;6.572;2022-12-18T14:57:35;-1.50;99.90
54832;DHT22;40730;53.068;6.572;2022-12-18T15:00:26;-0.90;99.90
54832;DHT22;40730;53.068;6.572;2022-12-18T15:03:16;-1.30;99.90
54832;DHT22;40730;53.068;6.572;2022-12-18T15:06:29;-1.30;99.90
54832;DHT22;40730;53.068;6.572;2022-12-18T15:09:24;-1.50;99.90
54832;DHT22;40730;53.068;6.572;2022-12-18T15:12:35;-0.80;99.90
54832;DHT22;40730;53.068;6.572;2022-12-18T15:15:50;-1.50;99.90
54832;DHT22;40730;53.068;6.572;2022-12-18T15:18:45;-1.90;99.90
54832;DHT22;40730;53.068;6.572;2022-12-18T15:21:45;-1.90;99.90
54832;DHT22;40730;53.068;6.572;2022-12-18T15:24:33;-1.50;99.90
54832;DHT22;40730;53.068;6.572;2022-12-18T15:27:38;-1.60;99.90
54832;DHT22;40730;53.068;6.572;2022-12-18T15:30:25;-1.80;99.90
54832;DHT22;40730;53.068;6.572;2022-12-18T15:33:29;-1.70;99.90
54832;DHT22;40730;53.068;6.572;2022-12-18T15:36:28;-1.70;99.90
54832;DHT22;40730;53.068;6.572;2022-12-18T15:39:10;-1.30;99.90
54832;DHT22;40730;53.068;6.572;2022-12-18T15:42:12;-1.30;99.90
54832;DHT22;40730;53.068;6.572;2022-12-18T15:44:59;-1.00;99.90
54832;DHT22;40730;53.068;6.572;2022-12-18T15:47:47;-1.70;99.90
54832;DHT22;40730;53.068;6.572;2022-12-18T15:50:54;-1.20;99.90
54832;DHT22;40730;53.068;6.572;2022-12-18T15:53:32;-1.70;99.90
54832;DHT22;40730;53.068;6.572;2022-12-18T15:56:15;-1.30;99.90
54832;DHT22;40730;53.068;6.572;2022-12-18T15:59:25;-1.60;99.90
54832;DHT22;40730;53.068;6.572;2022-12-18T16:02:36;-1.00;99.90
54832;DHT22;40730;53.068;6.572;2022-12-18T16:05:30;-1.60;99.90
54832;DHT22;40730;53.068;6.572;2022-12-18T16:08:11;-1.70;99.90
54832;DHT22;40730;53.068;6.572;2022-12-18T16:11:27;-1.80;99.90
54832;DHT22;40730;53.068;6.572;2022-12-18T16:15:10;-1.00;99.90
54832;DHT22;40730;53.068;6.572;2022-12-18T16:18:49;-1.70;99.90
54832;DHT22;40730;53.068;6.572;2022-12-18T16:24:54;-1.70;99.90
54832;DHT22;40730;53.068;6.572;2022-12-18T16:28:13;-1.50;99.90
54832;DHT22;40730;53.068;6.572;2022-12-18T16:31:08;-1.70;99.90
54832;DHT22;40730;53.068;6.572;2022-12-18T16:33:42;-1.70;99.90
54832;DHT22;40730;53.068;6.572;2022-12-18T16:36:40;-1.80;99.90
54832;DHT22;40730;53.068;6.572;2022-12-18T16:39:14;-0.90;99.90
54832;DHT22;40730;53.068;6.572;2022-12-18T16:42:10;-1.30;99.90
54832;DHT22;40730;53.068;6.572;2022-12-18T16:45:08;-1.40;99.90
54832;DHT22;40730;53.068;6.572;2022-12-18T16:48:18;-1.60;99.90
54832;DHT22;40730;53.068;6.572;2022-12-18T16:51:07;-1.00;99.90
54832;DHT22;40730;53.068;6.572;2022-12-18T16:53:47;-1.90;99.90
54832;DHT22;40730;53.068;6.572;2022-12-18T16:56:40;-1.50;99.90
54832;DHT22;40730;53.068;6.572;2022-12-18T16:59:29;-1.50;99.90
54832;DHT22;40730;53.068;6.572;2022-12-18T17:02:03;-1.50;99.90
54832;DHT22;40730;53.068;6.572;2022-12-18T17:04:36;-1.10;99.90
54832;DHT22;40730;53.068;6.572;2022-12-18T17:07:11;-1.00;99.90
54832;DHT22;40730;53.068;6.572;2022-12-18T17:10:08;-1.00;99.90
54832;DHT22;40730;53.068;6.572;2022-12-18T17:13:13;-0.70;99.90
54832;DHT22;40730;53.068;6.572;2022-12-18T17:16:27;-1.30;99.90
54832;DHT22;40730;53.068;6.572;2022-12-18T17:19:58;-1.40;99.90
54832;DHT22;40730;53.068;6.572;2022-12-18T17:22:58;-1.10;99.90
54832;DHT22;40730;53.068;6.572;2022-12-18T17:25:43;-1.20;99.90
54832;DHT22;40730;53.068;6.572;2022-12-18T17:28:19;-1.30;99.90
54832;DHT22;40730;53.068;6.572;2022-12-18T17:30:47;-1.20;99.90
54832;DHT22;40730;53.068;6.572;2022-12-18T17:34:00;-1.20;99.90
54832;DHT22;40730;53.068;6.572;2022-12-18T17:36:53;-1.20;99.90
54832;DHT22;40730;53.068;6.572;2022-12-18T17:39:39;-1.20;99.90
54832;DHT22;40730;53.068;6.572;2022-12-18T17:42:25;-1.10;99.90
54832;DHT22;40730;53.068;6.572;2022-12-18T17:45:18;-1.10;99.90
54832;DHT22;40730;53.068;6.572;2022-12-18T17:47:50;-0.80;99.90
54832;DHT22;40730;53.068;6.572;2022-12-18T17:50:33;-1.00;99.90
54832;DHT22;40730;53.068;6.572;2022-12-18T17:53:41;-1.10;99.90
54832;DHT22;40730;53.068;6.572;2022-12-18T17:56:23;-1.10;99.90
54832;DHT22;40730;53.068;6.572;2022-12-18T17:58:49;-1.10;99.90
54832;DHT22;40730;53.068;6.572;2022-12-18T18:01:32;-1.00;99.90
54832;DHT22;40730;53.068;6.572;2022-12-18T18:04:19;-1.10;99.90
54832;DHT22;40730;53.068;6.572;2022-12-18T18:07:28;-0.60;99.90
54832;DHT22;40730;53.068;6.572;2022-12-18T18:14:55;-1.60;99.90
54832;DHT22;40730;53.068;6.572;2022-12-18T18:17:35;-0.40;99.90
54832;DHT22;40730;53.068;6.572;2022-12-18T18:20:44;-0.90;99.90
54832;DHT22;40730;53.068;6.572;2022-12-18T18:23:32;-0.90;99.90
54832;DHT22;40730;53.068;6.572;2022-12-18T18:26:08;-0.80;99.90
54832;DHT22;40730;53.068;6.572;2022-12-18T18:28:52;-1.40;99.90
54832;DHT22;40730;53.068;6.572;2022-12-18T18:31:40;-0.70;99.90
54832;DHT22;40730;53.068;6.572;2022-12-18T18:34:32;-0.80;99.90
54832;DHT22;40730;53.068;6.572;2022-12-18T18:37:52;-0.70;99.90
54832;DHT22;40730;53.068;6.572;2022-12-18T18:40:48;-0.60;99.90
54832;DHT22;40730;53.068;6.572;2022-12-18T18:44:10;-0.30;99.90
54832;DHT22;40730;53.068;6.572;2022-12-18T18:47:01;-0.90;99.90
54832;DHT22;40730;53.068;6.572;2022-12-18T18:49:56;-0.60;99.90
54832;DHT22;40730;53.068;6.572;2022-12-18T18:53:02;-0.10;99.90
54832;DHT22;40730;53.068;6.572;2022-12-18T18:55:57;-0.60;99.90
54832;DHT22;40730;53.068;6.572;2022-12-18T18:58:54;-0.60;99.90
54832;DHT22;40730;53.068;6.572;2022-12-18T19:01:42;-0.60;99.90
54832;DHT22;40730;53.068;6.572;2022-12-18T19:04:56;-0.60;99.90
54832;DHT22;40730;53.068;6.572;2022-12-18T19:07:45;-0.60;99.90
54832;DHT22;40730;53.068;6.572;2022-12-18T19:10:23;-0.60;99.90
54832;DHT22;40730;53.068;6.572;2022-12-18T19:13:28;-0.60;99.90
54832;DHT22;40730;53.068;6.572;2022-12-18T19:16:16;0.10;99.90
54832;DHT22;40730;53.068;6.572;2022-12-18T19:19:03;-0.20;99.90
54832;DHT22;40730;53.068;6.572;2022-12-18T19:21:55;-0.10;99.90
54832;DHT22;40730;53.068;6.572;2022-12-18T19:25:08;-0.40;99.90
54832;DHT22;40730;53.068;6.572;2022-12-18T19:28:21;-0.80;99.90
54832;DHT22;40730;53.068;6.572;2022-12-18T19:32:03;-0.30;99.90
54832;DHT22;40730;53.068;6.572;2022-12-18T19:39:36;0.10;99.90
54832;DHT22;40730;53.068;6.572;2022-12-18T19:46:14;-0.10;99.90
54832;DHT22;40730;53.068;6.572;2022-12-18T19:49:02;-0.10;99.90
54832;DHT22;40730;53.068;6.572;2022-12-18T19:52:12;0.10;99.90
54832;DHT22;40730;53.068;6.572;2022-12-18T19:55:18;0.20;99.90
54832;DHT22;40730;53.068;6.572;2022-12-18T19:58:10;0.40;99.90
54832;DHT22;40730;53.068;6.572;2022-12-18T20:01:06;0.30;99.90
54832;DHT22;40730;53.068;6.572;2022-12-18T20:03:58;0.00;99.90
54832;DHT22;40730;53.068;6.572;2022-12-18T20:06:54;-0.20;99.90
54832;DHT22;40730;53.068;6.572;2022-12-18T20:09:51;0.50;99.90
54832;DHT22;40730;53.068;6.572;2022-12-18T20:12:37;0.20;99.90
54832;DHT22;40730;53.068;6.572;2022-12-18T20:15:57;0.70;99.90
54832;DHT22;40730;53.068;6.572;2022-12-18T20:19:01;0.30;99.90
54832;DHT22;40730;53.068;6.572;2022-12-18T20:22:14;0.30;99.90
54832;DHT22;40730;53.068;6.572;2022-12-18T20:25:14;0.30;99.90
54832;DHT22;40730;53.068;6.572;2022-12-18T20:27:50;0.10;99.90
54832;DHT22;40730;53.068;6.572;2022-12-18T20:30:49;0.30;99.90
54832;DHT22;40730;53.068;6.572;2022-12-18T20:34:15;0.50;99.90